createdAt,value
2019-06-26T00:02:00.384Z,101897.66
2019-06-26T00:05:08.470Z,101903.36
2019-06-26T00:08:16.458Z,101899.73
2019-06-26T00:11:24.468Z,101901.62
2019-06-26T00:14:32.489Z,101896.60
2019-06-26T00:17:41.277Z,101894.59
2019-06-26T00:20:49.181Z,101893.47
2019-06-26T00:23:57.084Z,101891.72
2019-06-26T00:27:05.010Z,101899.13
2019-06-26T00:30:13.372Z,101898.50
2019-06-26T00:33:21.352Z,101897.66
2019-06-26T00:36:38.675Z,101895.05
2019-06-26T00:39:46.588Z,101884.78
2019-06-26T00:42:54.616Z,101890.03
2019-06-26T00:46:02.681Z,101887.23
2019-06-26T00:49:10.707Z,101886.00
2019-06-26T00:52:18.737Z,101886.89
2019-06-26T00:55:26.745Z,101891.27
2019-06-26T00:58:34.753Z,101886.55
2019-06-26T01:01:43.325Z,101887.97
2019-06-26T01:04:52.885Z,101886.68
2019-06-26T01:08:00.835Z,101886.20
2019-06-26T01:11:08.805Z,101882.69
2019-06-26T01:14:25.730Z,101878.43
2019-06-26T01:17:33.667Z,101877.21
2019-06-26T01:20:41.947Z,101872.50
2019-06-26T01:23:49.930Z,101876.17
2019-06-26T01:27:07.346Z,101864.37
2019-06-26T01:30:16.749Z,101860.91
2019-06-26T01:33:24.643Z,101866.73
2019-06-26T01:36:35.424Z,101864.22
2019-06-26T01:39:43.493Z,101871.40
2019-06-26T01:43:00.763Z,101872.86
2019-06-26T01:46:08.776Z,101871.40
2019-06-26T01:49:16.739Z,101878.02
2019-06-26T01:52:24.736Z,101868.64
2019-06-26T01:55:32.731Z,101871.65
2019-06-26T01:58:40.731Z,101877.46
2019-06-26T02:01:48.802Z,101878.84
2019-06-26T02:04:56.801Z,101885.45
2019-06-26T02:08:04.514Z,101879.59
2019-06-26T02:11:12.659Z,101875.35
2019-06-26T02:14:30.409Z,101876.44
2019-06-26T02:17:30.445Z,101876.98
2019-06-26T02:20:47.841Z,101875.94
2019-06-26T02:23:55.838Z,101873.63
2019-06-26T02:27:03.754Z,101878.31
2019-06-26T02:30:11.994Z,101880.78
2019-06-26T02:33:19.888Z,101876.88
2019-06-26T02:36:27.894Z,101875.66
2019-06-26T02:39:35.886Z,101875.84
2019-06-26T02:42:43.780Z,101873.33
2019-06-26T02:45:51.669Z,101873.87
2019-06-26T02:48:59.580Z,101864.22
2019-06-26T02:52:07.567Z,101875.84
2019-06-26T02:55:15.757Z,101876.09
2019-06-26T02:58:23.947Z,101874.94
2019-06-26T03:01:31.857Z,101875.74
2019-06-26T03:04:39.745Z,101872.98
2019-06-26T03:07:47.649Z,101873.56
2019-06-26T03:10:55.527Z,101881.55
2019-06-26T03:14:03.747Z,101880.47
2019-06-26T03:17:11.785Z,101884.06
2019-06-26T03:20:24.943Z,101881.30
2019-06-26T03:23:42.128Z,101882.78
2019-06-26T03:26:50.017Z,101885.20
2019-06-26T03:29:58.018Z,101893.77
2019-06-26T03:33:06.120Z,101887.05
2019-06-26T03:36:14.114Z,101893.11
2019-06-26T03:39:22.194Z,101895.28
2019-06-26T03:42:39.599Z,101891.02
2019-06-26T03:45:47.786Z,101893.72
2019-06-26T03:49:05.166Z,101895.20
2019-06-26T03:52:13.139Z,101902.00
2019-06-26T03:55:21.263Z,101899.48
2019-06-26T03:58:29.173Z,101903.08
2019-06-26T04:01:37.070Z,101902.00
2019-06-26T04:04:45.057Z,101905.34
2019-06-26T04:07:53.059Z,101903.47
2019-06-26T04:11:01.056Z,101907.36
2019-06-26T04:14:09.125Z,101900.01
2019-06-26T04:17:17.038Z,101899.03
2019-06-26T04:20:24.928Z,101903.72
2019-06-26T04:23:32.925Z,101907.97
2019-06-26T04:26:40.924Z,101900.91
2019-06-26T04:29:48.939Z,101905.12
2019-06-26T04:32:56.962Z,101904.63
2019-06-26T04:36:05.174Z,101898.86
2019-06-26T04:39:13.178Z,101903.98
2019-06-26T04:42:21.185Z,101906.28
2019-06-26T04:45:29.175Z,101906.09
2019-06-26T04:48:37.251Z,101901.48
2019-06-26T04:51:45.262Z,101902.09
2019-06-26T04:54:53.205Z,101901.92
2019-06-26T04:58:01.146Z,101902.55
2019-06-26T05:01:09.133Z,101899.59
2019-06-26T05:04:17.140Z,101902.17
2019-06-26T05:07:25.234Z,101903.89
2019-06-26T05:10:33.427Z,101916.70
2019-06-26T05:13:41.482Z,101912.70
2019-06-26T05:16:49.569Z,101914.50
2019-06-26T05:19:57.571Z,101913.80
2019-06-26T05:23:14.621Z,101911.53
2019-06-26T05:26:23.037Z,101920.47
2019-06-26T05:29:40.179Z,101920.97
2019-06-26T05:32:48.215Z,101921.63
2019-06-26T05:35:56.194Z,101915.67
2019-06-26T05:39:05.728Z,101916.91
2019-06-26T05:42:13.608Z,101927.63
2019-06-26T05:45:21.931Z,101928.66
2019-06-26T05:48:39.174Z,101926.58
2019-06-26T05:51:47.170Z,101926.09
2019-06-26T05:54:55.198Z,101932.20
2019-06-26T05:58:05.849Z,101933.83
2019-06-26T06:01:13.865Z,101940.95
2019-06-26T06:04:31.142Z,101943.03
2019-06-26T06:07:39.182Z,101954.05
2019-06-26T06:10:47.428Z,101953.95
2019-06-26T06:13:55.523Z,101969.50
2019-06-26T06:17:03.626Z,101965.95
2019-06-26T06:20:12.029Z,101962.42
2019-06-26T06:23:19.918Z,101966.10
2019-06-26T06:26:27.827Z,101964.98
2019-06-26T06:29:35.712Z,101973.73
2019-06-26T06:32:43.777Z,101981.88
2019-06-26T06:35:51.920Z,101986.80
2019-06-26T06:38:59.920Z,101989.39
2019-06-26T06:42:07.973Z,101995.87
2019-06-26T06:45:16.222Z,101998.47
2019-06-26T06:48:24.099Z,102009.04
2019-06-26T06:51:31.993Z,102011.62
2019-06-26T06:54:40.060Z,102005.00
2019-06-26T06:57:57.357Z,102013.81
2019-06-26T07:01:05.467Z,102013.14
2019-06-26T07:04:13.412Z,102006.17
2019-06-26T07:07:21.408Z,102013.75
2019-06-26T07:10:29.416Z,102021.84
2019-06-26T07:13:37.408Z,102020.78
2019-06-26T07:16:45.345Z,102036.89
2019-06-26T07:19:53.438Z,102038.01
2019-06-26T07:23:01.434Z,102048.09
2019-06-26T07:26:13.090Z,102050.11
2019-06-26T07:29:19.009Z,102050.11
2019-06-26T07:32:26.930Z,102052.60
2019-06-26T07:35:35.326Z,102050.37
2019-06-26T07:38:43.289Z,102055.38
2019-06-26T07:42:00.488Z,102054.77
2019-06-26T07:45:09.300Z,102061.46
2019-06-26T07:48:17.216Z,102062.57
2019-06-26T07:51:25.301Z,102069.25
2019-06-26T07:57:47.197Z,102071.35
2019-06-26T08:01:04.413Z,102068.85
2019-06-26T08:04:12.278Z,102069.41
2019-06-26T08:07:20.317Z,102074.92
2019-06-26T08:10:27.973Z,102088.28
2019-06-26T08:13:35.973Z,102084.66
2019-06-26T08:16:53.079Z,102081.06
2019-06-26T08:20:01.098Z,102084.72
2019-06-26T08:23:09.164Z,102086.11
2019-06-26T08:26:17.054Z,102094.19
2019-06-26T08:29:24.941Z,102091.69
2019-06-26T08:32:32.868Z,102078.88
2019-06-26T08:35:40.864Z,102080.23
2019-06-26T08:38:48.847Z,102086.03
2019-06-26T08:41:56.874Z,102085.48
2019-06-26T08:45:05.733Z,102085.44
2019-06-26T08:48:28.270Z,102093.20
2019-06-26T08:51:24.065Z,102092.38
2019-06-26T08:54:32.169Z,102095.10
2019-06-26T08:57:40.299Z,102098.97
2019-06-26T09:00:48.333Z,102095.92
2019-06-26T09:03:56.213Z,102108.53
2019-06-26T09:07:04.221Z,102110.47
2019-06-26T09:10:12.866Z,102107.41
2019-06-26T09:13:20.750Z,102117.95
2019-06-26T09:16:28.795Z,102121.58
2019-06-26T09:19:36.844Z,102133.83
2019-06-26T09:22:44.852Z,102137.16
2019-06-26T09:25:52.588Z,102142.94
2019-06-26T09:29:00.591Z,102144.34
2019-06-26T09:32:17.819Z,102145.44
2019-06-26T09:35:25.860Z,102150.73
2019-06-26T09:38:33.890Z,102147.32
2019-06-26T09:41:41.856Z,102160.64
2019-06-26T09:45:35.763Z,102155.36
2019-06-26T09:48:53.737Z,102167.55
2019-06-26T09:52:11.168Z,102162.50
2019-06-26T09:55:19.525Z,102167.53
2019-06-26T09:58:36.625Z,102178.94
2019-06-26T10:01:44.843Z,102191.80
2019-06-26T10:05:02.409Z,102187.12
2019-06-26T10:13:01.643Z,102190.34
2019-06-26T10:16:18.948Z,102206.40
2019-06-26T10:19:26.934Z,102198.61
2019-06-26T10:22:34.818Z,102211.19
2019-06-26T10:25:42.814Z,102213.41
2019-06-26T10:28:50.710Z,102227.64
2019-06-26T10:31:58.708Z,102224.31
2019-06-26T10:35:07.735Z,102234.38
2019-06-26T10:38:15.625Z,102234.09
2019-06-26T10:41:23.721Z,102242.45
2019-06-26T10:44:41.182Z,102240.46
2019-06-26T10:47:49.186Z,102250.56
2019-06-26T10:50:59.033Z,102250.56
2019-06-26T10:54:06.860Z,102246.97
2019-06-26T10:57:24.175Z,102239.73
2019-06-26T11:00:33.111Z,102244.22
2019-06-26T11:03:41.239Z,102249.48
2019-06-26T11:06:59.628Z,102247.77
2019-06-26T11:10:17.462Z,102246.63
2019-06-26T11:13:25.377Z,102259.44
2019-06-26T11:16:33.301Z,102257.20
2019-06-26T11:19:44.204Z,102263.89
2019-06-26T11:24:03.712Z,102263.92
2019-06-26T11:27:11.714Z,102256.96
2019-06-26T11:30:21.161Z,102256.97
2019-06-26T11:33:38.449Z,102255.88
2019-06-26T11:37:02.708Z,102268.98
2019-06-26T11:40:06.854Z,102257.02
2019-06-26T11:43:14.759Z,102257.30
2019-06-26T11:46:22.822Z,102260.33
2019-06-26T11:49:30.756Z,102274.81
2019-06-26T11:52:39.041Z,102280.11
2019-06-26T11:55:47.320Z,102271.80
2019-06-26T11:59:04.514Z,102274.81
2019-06-26T12:02:12.498Z,102300.70
2019-06-26T12:05:21.820Z,102286.52
2019-06-26T12:08:29.725Z,102295.98
2019-06-26T12:11:37.719Z,102297.94
2019-06-26T12:14:45.730Z,102311.25
2019-06-26T12:17:53.838Z,102298.11
2019-06-26T12:21:01.841Z,102296.47
2019-06-26T12:24:09.849Z,102307.63
2019-06-26T12:27:24.057Z,102301.70
2019-06-26T12:30:31.937Z,102304.63
2019-06-26T12:33:49.165Z,102300.30
2019-06-26T12:36:57.177Z,102314.31
2019-06-26T12:40:06.964Z,102311.82
2019-06-26T12:43:14.865Z,102317.45
2019-06-26T12:46:22.739Z,102317.81
2019-06-26T12:49:30.722Z,102315.70
2019-06-26T12:52:38.859Z,102316.72
2019-06-26T12:55:46.831Z,102324.77
2019-06-26T12:58:54.726Z,102316.52
2019-06-26T13:02:02.674Z,102319.22
2019-06-26T13:05:11.978Z,102313.83
2019-06-26T13:08:29.039Z,102305.66
2019-06-26T13:11:37.038Z,102325.39
2019-06-26T13:14:45.041Z,102329.63
2019-06-26T13:17:53.049Z,102326.30
2019-06-26T13:21:04.868Z,102328.59
2019-06-26T13:24:10.755Z,102330.39
2019-06-26T13:27:18.643Z,102330.84
2019-06-26T13:30:37.535Z,102318.66
2019-06-26T13:33:45.425Z,102315.97
2019-06-26T13:37:39.235Z,102319.52
2019-06-26T13:40:47.113Z,102319.03
2019-06-26T13:43:55.142Z,102330.52
2019-06-26T13:47:03.096Z,102327.39
2019-06-26T13:50:11.438Z,102324.59
2019-06-26T13:53:19.474Z,102335.44
2019-06-26T13:56:27.354Z,102329.01
2019-06-26T13:59:35.459Z,102339.85
2019-06-26T14:02:52.894Z,102341.76
2019-06-26T14:06:00.868Z,102347.83
2019-06-26T14:09:09.526Z,102348.34
2019-06-26T14:12:19.298Z,102359.75
2019-06-26T14:15:27.277Z,102354.91
2019-06-26T14:18:35.296Z,102340.55
2019-06-26T14:21:43.316Z,102344.42
2019-06-26T14:24:57.522Z,102351.93
2019-06-26T14:28:05.443Z,102358.05
2019-06-26T14:31:13.503Z,102360.52
2019-06-26T14:34:21.626Z,102365.72
2019-06-26T14:37:29.498Z,102372.95
2019-06-26T14:40:37.494Z,102368.94
2019-06-26T14:43:45.484Z,102370.31
2019-06-26T14:46:53.380Z,102373.34
2019-06-26T14:50:01.847Z,102382.69
2019-06-26T14:53:09.773Z,102387.94
2019-06-26T14:56:27.182Z,102389.01
2019-06-26T14:59:35.178Z,102383.79
2019-06-26T15:02:43.151Z,102375.37
2019-06-26T15:05:51.039Z,102371.80
2019-06-26T15:08:58.943Z,102374.38
2019-06-26T15:12:06.852Z,102367.12
2019-06-26T15:15:15.348Z,102365.39
2019-06-26T15:18:23.247Z,102375.70
2019-06-26T15:21:31.260Z,102365.23
2019-06-26T15:24:39.458Z,102368.32
2019-06-26T15:27:56.618Z,102386.89
2019-06-26T15:31:04.612Z,102396.53
2019-06-26T15:34:12.608Z,102377.94
2019-06-26T15:37:20.571Z,102389.40
2019-06-26T15:40:28.418Z,102385.83
2019-06-26T15:43:36.386Z,102386.23
2019-06-26T15:46:44.264Z,102393.45
2019-06-26T15:50:02.314Z,102386.64
2019-06-26T15:53:19.623Z,102386.84
2019-06-26T15:56:27.836Z,102393.22
2019-06-26T15:59:45.111Z,102386.20
2019-06-26T16:02:53.292Z,102392.22
2019-06-26T16:06:10.614Z,102399.14
2019-06-26T16:09:18.607Z,102414.04
2019-06-26T16:12:26.636Z,102401.32
2019-06-26T16:15:35.105Z,102412.15
2019-06-26T16:18:57.636Z,102414.43
2019-06-26T16:22:05.598Z,102416.81
2019-06-26T16:25:13.839Z,102428.00
2019-06-26T16:28:31.195Z,102427.57
2019-06-26T16:31:39.083Z,102431.30
2019-06-26T16:34:47.126Z,102439.05
2019-06-26T16:37:55.034Z,102456.55
2019-06-26T16:41:03.132Z,102456.31
2019-06-26T16:44:11.019Z,102464.42
2019-06-26T16:47:18.891Z,102456.99
2019-06-26T16:50:30.568Z,102460.49
2019-06-26T16:53:38.477Z,102454.06
2019-06-26T16:56:46.501Z,102444.84
2019-06-26T17:00:08.464Z,102441.94
2019-06-26T17:03:04.036Z,102450.55
2019-06-26T17:06:11.921Z,102435.05
2019-06-26T17:09:19.837Z,102442.59
2019-06-26T17:12:27.899Z,102457.30
2019-06-26T17:15:35.888Z,102459.63
2019-06-26T17:18:43.924Z,102447.88
2019-06-26T17:21:52.131Z,102453.55
2019-06-26T17:25:00.146Z,102453.02
2019-06-26T17:28:08.113Z,102448.59
2019-06-26T17:31:15.992Z,102444.61
2019-06-26T17:34:27.072Z,102456.15
2019-06-26T17:37:33.425Z,102458.67
2019-06-26T17:40:41.409Z,102460.81
2019-06-26T17:46:56.097Z,102455.03
2019-06-26T17:50:04.113Z,102453.85
2019-06-26T17:53:21.554Z,102461.38
2019-06-26T17:56:21.721Z,102470.56
2019-06-26T17:59:29.599Z,102459.07
2019-06-26T18:02:37.501Z,102470.84
2019-06-26T18:05:45.511Z,102469.77
2019-06-26T18:08:53.484Z,102477.61
2019-06-26T18:12:01.495Z,102472.89
2019-06-26T18:15:10.024Z,102473.84
2019-06-26T18:18:18.032Z,102467.89
2019-06-26T18:21:35.298Z,102472.58
2019-06-26T18:24:43.188Z,102475.59
2019-06-26T18:27:51.282Z,102481.06
2019-06-26T18:30:59.239Z,102486.59
2019-06-26T18:34:07.107Z,102477.68
2019-06-26T18:37:15.094Z,102478.89
2019-06-26T18:40:23.160Z,102486.67
2019-06-26T18:43:31.076Z,102501.00
2019-06-26T18:46:39.075Z,102496.25
2019-06-26T18:49:46.952Z,102495.52
2019-06-26T18:52:54.927Z,102498.27
2019-06-26T18:56:11.881Z,102498.27
2019-06-26T18:59:19.876Z,102507.27
2019-06-26T19:02:27.850Z,102518.68
2019-06-26T19:05:35.810Z,102525.49
2019-06-26T19:08:43.877Z,102522.89
2019-06-26T19:11:51.767Z,102530.64
2019-06-26T19:14:59.655Z,102525.91
2019-06-26T19:18:07.562Z,102531.09
2019-06-26T19:21:15.447Z,102533.70
2019-06-26T19:24:32.590Z,102528.73
2019-06-26T19:27:40.484Z,102533.52
2019-06-26T19:30:48.540Z,102543.66
2019-06-26T19:33:56.489Z,102544.55
2019-06-26T19:37:04.512Z,102561.63
2019-06-26T19:40:13.802Z,102564.19
2019-06-26T19:43:21.684Z,102564.41
2019-06-26T19:46:41.908Z,102551.94
2019-06-26T19:49:48.548Z,102561.85
2019-06-26T19:52:56.550Z,102562.68
2019-06-26T19:56:04.540Z,102564.38
2019-06-26T19:59:12.590Z,102558.16
2019-06-26T20:02:20.471Z,102547.48
2019-06-26T20:05:28.548Z,102558.87
2019-06-26T20:08:51.915Z,102556.89
2019-06-26T20:11:55.610Z,102561.12
2019-06-26T20:15:04.263Z,102562.48
2019-06-26T20:18:12.157Z,102560.36
2019-06-26T20:21:20.138Z,102570.17
2019-06-26T20:24:44.238Z,102567.73
2019-06-26T20:27:46.772Z,102575.77
2019-06-26T20:30:54.730Z,102571.86
2019-06-26T20:34:02.699Z,102581.54
2019-06-26T20:37:10.571Z,102583.12
2019-06-26T20:40:19.621Z,102589.36
2019-06-26T20:43:27.514Z,102575.24
2019-06-26T20:46:35.536Z,102598.84
2019-06-26T20:49:52.978Z,102586.38
2019-06-26T20:52:53.119Z,102588.72
2019-06-26T20:56:01.010Z,102589.33
2019-06-26T20:59:08.991Z,102590.70
2019-06-26T21:02:17.027Z,102594.16
2019-06-26T21:05:28.611Z,102599.00
2019-06-26T21:08:34.580Z,102596.98
2019-06-26T21:11:42.556Z,102598.47
2019-06-26T21:14:50.545Z,102602.57
2019-06-26T21:17:58.536Z,102591.52
2019-06-26T21:21:06.409Z,102606.73
2019-06-26T21:24:14.289Z,102595.97
2019-06-26T21:27:32.471Z,102598.30
2019-06-26T21:30:49.651Z,102599.66
2019-06-26T21:33:57.639Z,102599.28
2019-06-26T21:37:05.499Z,102601.82
2019-06-26T21:40:13.765Z,102602.14
2019-06-26T21:43:21.619Z,102612.58
2019-06-26T21:46:29.592Z,102621.52
2019-06-26T21:49:37.462Z,102617.78
2019-06-26T21:52:45.343Z,102614.54
2019-06-26T21:55:53.243Z,102608.25
2019-06-26T21:59:10.383Z,102610.41
2019-06-26T22:02:18.352Z,102619.15
2019-06-26T22:05:26.518Z,102618.99
2019-06-26T22:08:34.529Z,102615.08
2019-06-26T22:11:42.471Z,102612.38
2019-06-26T22:14:50.350Z,102615.64
2019-06-26T22:17:58.232Z,102612.77
2019-06-26T22:21:06.199Z,102619.91
2019-06-26T22:24:14.082Z,102614.89
2019-06-26T22:27:31.096Z,102619.62
2019-06-26T22:30:39.090Z,102622.84
2019-06-26T22:33:47.181Z,102618.56
2019-06-26T22:36:55.168Z,102617.39
2019-06-26T22:40:03.293Z,102619.74
2019-06-26T22:43:11.380Z,102621.34
2019-06-26T22:46:28.550Z,102631.15
2019-06-26T22:49:36.619Z,102629.84
2019-06-26T22:52:44.594Z,102635.30
2019-06-26T22:56:06.588Z,102639.69
2019-06-26T22:59:02.157Z,102641.88
2019-06-26T23:02:10.063Z,102634.14
2019-06-26T23:05:18.086Z,102638.97
2019-06-26T23:08:26.149Z,102640.48
2019-06-26T23:11:34.113Z,102643.41
2019-06-26T23:14:42.084Z,102638.54
2019-06-26T23:17:49.969Z,102644.20
2019-06-26T23:20:58.057Z,102641.98
2019-06-26T23:24:06.110Z,102640.16
2019-06-26T23:27:14.084Z,102646.27
2019-06-26T23:30:22.146Z,102643.02
2019-06-26T23:33:30.038Z,102652.92
2019-06-26T23:36:38.014Z,102654.63
2019-06-26T23:39:46.059Z,102650.84
2019-06-26T23:42:53.962Z,102648.35
2019-06-26T23:46:02.026Z,102648.16
2019-06-26T23:49:10.119Z,102655.59
2019-06-26T23:52:18.087Z,102655.12
2019-06-26T23:55:26.074Z,102658.56
2019-06-26T23:58:34.038Z,102666.67
